CheckWX is a tool to help pilots better visualize weather data.  It is not intended as a substitute for an official pre-flight weather briefing.

05:45:14 UTC

KBDL METAR
Bradley International Airport
Windsor Locks, Connecticut, USA
Current

54 mins ago

KBDL 200451Z 28007KT 10SM FEW200 BKN250 M07/M15 A3057 RMK AO2 SLP354 T10721150 410111117
Observed
Feb-20 @ 04:51 UTC
Wind
  • 280° at 7 KTS
Visibility
16,093 meters
Flight Rules
VFR
Cloud Levels
  • Few at 20,000' AGL
  • Broken at 25,000' AGL
Temperature
-7°C / 19°F
Dewpoint
-15°C / 5°F
Humidity
53%
Altimeter
30.57" Hg
Pressure
1035.4 hPa
Previous

2 hours ago

KBDL 200351Z 32008KT 10SM FEW200 FEW250 M07/M16 A3058 RMK AO2 SLP357 T10671156
Observed
Feb-20 @ 03:51 UTC
Wind
  • 320° at 8 KTS
Visibility
16,093 meters
Flight Rules
VFR
Cloud Levels
  • Few at 20,000' AGL
  • Few at 25,000' AGL
Temperature
-7°C / 19°F
Dewpoint
-16°C / 3°F
Humidity
49%
Altimeter
30.58" Hg
Pressure
1035.7 hPa
Previous

3 hours ago

KBDL 200251Z 32006KT 10SM FEW200 FEW250 M06/M17 A3060 RMK AO2 SLP366 T10611167 51018
Observed
Feb-20 @ 02:51 UTC
Wind
  • 320° at 6 KTS
Visibility
16,093 meters
Flight Rules
VFR
Cloud Levels
  • Few at 20,000' AGL
  • Few at 25,000' AGL
Temperature
-6°C / 21°F
Dewpoint
-17°C / 1°F
Humidity
42%
Altimeter
30.6" Hg
Pressure
1036.6 hPa